Williston Park, New York
Current Conditions -  °F | °C
As of 6:51 PM on Saturday 20 Dec 2014 (Local Time) from KJFK Reporting Station
Overcast Overcast  
Wind Chill: 34°   Ceiling: 3100
Heat Index: 34°   Visibility: 10mi
Dew Point: 21°   Wind: 3mph
Humidity: 59%   Direction: 50°NE
Pressure: 30.3"   Gusts: NA
Location:  40.76°N, 73.64°W
Report Text: KJFK 202351Z 05003KT 10SM OVC031 01/M06 A3030 RMK AO2 SLP259 T00111061 10011 20006 53006 $
Loading
Personal Weather Stations






























Interactive Weather Map New forecast layout! Learn more

10-Day Weather Forecast

Advertisements
Track Severe Weather on mobile